Time;durP1;ratioP1;P1;durP2;ratioP2;P2;SDS_P1;SDS_P2;PMS_P1;PMS_P2;Temp;Humidity;BMP_temperature;BMP_pressure;BME280_temperature;BME280_humidity;BME280_pressure;Samples;Min_cycle;Max_cycle;Signal;HPM_P1;HPM_P2
2023/07/24 00:00:42;;;;;;;8.10;6.70;;;;;;;15.10;92.21;98686.89;106729;1271;98749;-54
2023/07/24 00:03:31;;;;;;;7.70;5.90;;;;;;;15.11;92.39;98685.42;106458;1271;22716;-48
2023/07/24 00:06:00;;;;;;;8.30;6.00;;;;;;;15.11;92.24;98684.08;106561;1270;98810;-49
2023/07/24 00:08:29;;;;;;;8.60;6.10;;;;;;;15.11;92.20;98681.04;106619;1271;23371;-52
2023/07/24 00:10:58;;;;;;;7.70;5.90;;;;;;;15.11;92.31;98682.80;106594;1272;22629;-52
2023/07/24 00:13:27;;;;;;;12.80;5.50;;;;;;;15.11;92.35;98676.81;106413;1271;98582;-50
2023/07/24 00:15:57;;;;;;;7.30;5.40;;;;;;;15.11;92.37;98672.77;106635;1271;24229;-49
2023/07/24 00:18:28;;;;;;;6.30;5.40;;;;;;;15.12;92.39;98670.92;106499;1271;98834;-49
2023/07/24 00:20:57;;;;;;;9.10;5.50;;;;;;;15.12;92.56;98669.35;106704;1260;22527;-48
2023/07/24 00:23:25;;;;;;;6.40;5.10;;;;;;;15.14;92.58;98667.98;106513;1270;98920;-50
2023/07/24 00:25:54;;;;;;;10.30;5.70;;;;;;;15.16;92.53;98665.04;106584;1271;25285;-51
2023/07/24 00:28:23;;;;;;;7.10;5.50;;;;;;;15.19;92.56;98670.08;106677;1271;24115;-52
2023/07/24 00:30:52;;;;;;;9.90;5.90;;;;;;;15.21;92.59;98667.23;106702;1270;98881;-53
2023/07/24 00:33:21;;;;;;;8.00;5.90;;;;;;;15.23;92.63;98666.00;106800;1269;24355;-50
2023/07/24 00:35:50;;;;;;;7.40;5.50;;;;;;;15.25;92.63;98661.97;106784;1270;98828;-48
2023/07/24 00:38:18;;;;;;;14.50;3.30;;;;;;;15.28;92.58;98664.57;106551;1271;25562;-55
2023/07/24 00:40:47;;;;;;;25.40;7.50;;;;;;;15.30;92.62;98662.95;106573;1271;23915;-49
2023/07/24 00:43:16;;;;;;;15.60;7.00;;;;;;;15.32;92.58;98656.70;106636;1271;98963;-49
2023/07/24 00:45:47;;;;;;;7.90;6.20;;;;;;;15.35;92.69;98656.95;106534;1272;24246;-50
2023/07/24 00:48:16;;;;;;;5.80;5.00;;;;;;;15.37;92.55;98651.69;106527;1272;99348;-55
2023/07/24 00:50:45;;;;;;;6.50;5.20;;;;;;;15.38;92.58;98648.75;106664;1274;25568;-53
2023/07/24 00:53:17;;;;;;;7.50;5.50;;;;;;;15.41;92.65;98646.45;106622;1269;98967;-52
2023/07/24 00:55:47;;;;;;;11.40;5.90;;;;;;;15.43;92.64;98643.61;106736;1273;22524;-50
2023/07/24 00:58:17;;;;;;;6.80;5.50;;;;;;;15.45;92.63;98641.50;106625;1269;22536;-50
2023/07/24 01:00:47;;;;;;;9.30;6.30;;;;;;;15.45;92.53;98633.27;106602;1269;98864;-49
2023/07/24 01:03:16;;;;;;;8.90;5.90;;;;;;;15.43;92.59;98628.17;106620;1275;23049;-51
2023/07/24 01:05:45;;;;;;;7.50;5.40;;;;;;;15.42;92.62;98628.95;106526;1270;99005;-51
2023/07/24 01:08:14;;;;;;;7.90;4.90;;;;;;;15.43;92.63;98633.48;106689;1270;22650;-51
2023/07/24 01:10:43;;;;;;;7.30;5.00;;;;;;;15.42;92.65;98636.52;106876;1269;22650;-51
2023/07/24 01:13:25;;;;;;;8.20;5.30;;;;;;;15.41;92.67;98633.23;106639;1269;98813;-52
2023/07/24 01:16:05;;;;;;;9.10;5.10;;;;;;;15.42;92.75;98635.27;106588;1270;22511;-52
2023/07/24 01:18:36;;;;;;;10.00;5.50;;;;;;;15.44;92.83;98633.05;106689;1270;99216;-53
2023/07/24 01:21:08;;;;;;;7.00;5.50;;;;;;;15.42;92.74;98625.45;106676;1271;23906;-50
2023/07/24 01:23:59;;;;;;;8.70;5.10;;;;;;;15.39;92.69;98626.42;106507;1271;98934;-53
2023/07/24 01:26:28;;;;;;;8.10;5.70;;;;;;;15.34;92.59;98628.29;106737;1270;24275;-49
2023/07/24 01:28:57;;;;;;;6.60;5.40;;;;;;;15.29;92.59;98627.14;106756;1274;22608;-51
2023/07/24 01:31:25;;;;;;;8.10;5.60;;;;;;;15.24;92.67;98627.91;106653;1270;98472;-50
2023/07/24 01:33:54;;;;;;;6.70;5.70;;;;;;;15.19;92.70;98631.31;106770;1269;24256;-54
2023/07/24 01:36:23;;;;;;;7.60;5.40;;;;;;;15.13;92.68;98626.21;106712;1272;99514;-52
2023/07/24 01:38:53;;;;;;;6.40;5.30;;;;;;;15.08;92.70;98622.08;106654;1271;22536;-52
2023/07/24 01:41:22;;;;;;;7.10;5.20;;;;;;;15.02;92.80;98618.02;106626;1270;99470;-49
2023/07/24 01:43:51;;;;;;;6.70;5.00;;;;;;;14.96;92.83;98616.21;106694;1270;22610;-50
2023/07/24 01:46:20;;;;;;;10.30;5.90;;;;;;;14.91;92.91;98617.64;106736;1272;25342;-51
2023/07/24 01:48:49;;;;;;;10.00;6.00;;;;;;;14.87;92.97;98619.61;106697;1271;98975;-49
2023/07/24 01:51:18;;;;;;;6.60;5.70;;;;;;;14.84;93.04;98615.08;106613;1271;22614;-51
2023/07/24 01:53:46;;;;;;;7.00;5.60;;;;;;;14.83;93.19;98614.84;106651;1269;99470;-54
2023/07/24 01:56:15;;;;;;;8.40;5.90;;;;;;;14.84;93.20;98616.67;106689;1270;26727;-52
2023/07/24 01:58:44;;;;;;;7.80;6.20;;;;;;;14.82;93.10;98613.15;106570;1271;23945;-51
2023/07/24 02:01:14;;;;;;;6.90;5.80;;;;;;;14.80;93.25;98605.60;106601;1271;99494;-47
2023/07/24 02:03:43;;;;;;;7.00;5.70;;;;;;;14.76;93.02;98602.65;106691;1270;24306;-50
2023/07/24 02:06:12;;;;;;;7.00;5.70;;;;;;;14.71;93.09;98600.95;106596;1270;98742;-50
2023/07/24 02:08:45;;;;;;;7.20;5.70;;;;;;;14.71;93.47;98601.10;106715;1269;22519;-52
2023/07/24 02:11:15;;;;;;;7.50;6.20;;;;;;;14.76;93.63;98597.55;106564;1270;98938;-51
2023/07/24 02:13:45;;;;;;;8.10;5.80;;;;;;;14.80;93.78;98597.03;106844;1269;24541;-50
2023/07/24 02:16:14;;;;;;;7.50;5.40;;;;;;;14.86;93.79;98593.59;106672;1271;22531;-52
2023/07/24 02:18:43;;;;;;;9.00;6.10;;;;;;;14.90;93.78;98592.69;106565;1270;98743;-49
2023/07/24 02:21:11;;;;;;;6.80;6.10;;;;;;;14.93;93.70;98589.27;106626;1272;25348;-50
2023/07/24 02:23:40;;;;;;;6.90;5.90;;;;;;;14.96;93.74;98592.87;106549;1271;99577;-50
2023/07/24 02:26:09;;;;;;;9.40;5.90;;;;;;;14.95;93.54;98590.66;106798;1270;22540;-49
2023/07/24 02:28:37;;;;;;;6.90;6.10;;;;;;;14.93;93.54;98591.77;106680;1271;22737;-55
2023/07/24 02:31:06;;;;;;;6.70;5.60;;;;;;;14.91;93.61;98588.17;106520;1274;99018;-51
2023/07/24 02:33:35;;;;;;;6.30;5.50;;;;;;;14.90;93.64;98586.52;106711;1270;22527;-51
2023/07/24 02:36:04;;;;;;;6.40;5.40;;;;;;;14.90;93.69;98586.06;106422;1270;98825;-52
2023/07/24 02:38:33;;;;;;;6.50;5.80;;;;;;;14.91;93.85;98584.39;106732;1270;22526;-51
2023/07/24 02:41:01;;;;;;;6.80;5.10;;;;;;;14.93;94.01;98588.21;106522;1271;24229;-51
2023/07/24 02:43:30;;;;;;;7.00;6.00;;;;;;;14.96;94.06;98582.73;106427;1273;22764;-50
2023/07/24 02:46:02;;;;;;;8.00;5.60;;;;;;;14.99;94.08;98587.73;106425;1273;22563;-50
2023/07/24 02:48:31;;;;;;;6.80;6.10;;;;;;;15.04;94.15;98588.56;106558;1272;98864;-50
2023/07/24 02:51:00;;;;;;;7.00;5.60;;;;;;;15.05;94.08;98589.17;106592;1272;24052;-49
2023/07/24 02:53:29;;;;;;;7.70;5.30;;;;;;;15.09;94.28;98588.69;106436;1275;99396;-51
2023/07/24 02:55:58;;;;;;;9.10;5.90;;;;;;;15.13;94.30;98587.08;106485;1271;22738;-48
2023/07/24 02:58:27;;;;;;;8.30;5.90;;;;;;;15.17;94.36;98585.34;106541;1272;22592;-49
2023/07/24 03:01:06;;;;;;;5.90;5.10;;;;;;;15.21;94.37;98593.27;106517;1271;98753;-53
2023/07/24 03:03:35;;;;;;;7.90;5.20;;;;;;;15.24;94.46;98595.98;106569;1271;22528;-52
2023/07/24 03:06:04;;;;;;;6.80;5.40;;;;;;;15.28;94.56;98594.95;106534;1271;98794;-51
2023/07/24 03:08:33;;;;;;;8.40;5.60;;;;;;;15.33;94.59;98594.02;106516;1271;25230;-51
2023/07/24 03:11:05;;;;;;;7.10;5.60;;;;;;;15.36;94.55;98587.21;106850;1274;22553;-50
2023/07/24 03:13:34;;;;;;;8.20;5.30;;;;;;;15.40;94.57;98587.73;106517;1271;24872;-50
2023/07/24 03:16:03;;;;;;;6.00;5.40;;;;;;;15.44;94.54;98586.06;106684;1273;24236;-49
2023/07/24 03:18:31;;;;;;;6.20;5.50;;;;;;;15.46;94.58;98585.71;106439;1271;100299;-51
2023/07/24 03:21:00;;;;;;;6.60;5.90;;;;;;;15.51;94.74;98590.02;106462;1271;24104;-48
2023/07/24 03:23:29;;;;;;;8.10;5.80;;;;;;;15.54;94.65;98591.32;106470;1270;99092;-51
2023/07/24 03:25:58;;;;;;;7.20;4.90;;;;;;;15.58;94.72;98590.30;106584;1274;24297;-50
2023/07/24 03:28:27;;;;;;;6.00;5.30;;;;;;;15.61;94.78;98593.35;107415;1269;25792;-49
2023/07/24 03:30:55;;;;;;;5.70;5.20;;;;;;;15.65;94.74;98595.08;106449;1273;98848;-53
2023/07/24 03:33:24;;;;;;;5.60;4.70;;;;;;;15.71;94.89;98595.00;106648;1271;24277;-53
2023/07/24 03:35:53;;;;;;;5.90;5.00;;;;;;;15.72;94.60;98592.98;106378;1272;100516;-50
2023/07/24 03:38:21;;;;;;;6.40;5.30;;;;;;;15.70;94.47;98589.95;106581;1271;22584;-50
2023/07/24 03:40:50;;;;;;;10.60;5.60;;;;;;;15.69;94.56;98589.70;106511;1271;22526;-52
2023/07/24 03:43:19;;;;;;;5.50;4.70;;;;;;;15.71;94.64;98588.15;106626;1271;99059;-50
2023/07/24 03:45:48;;;;;;;5.70;4.80;;;;;;;15.74;94.75;98587.56;106576;1277;22530;-51
2023/07/24 03:48:17;;;;;;;8.20;4.70;;;;;;;15.78;94.95;98587.70;106474;1271;98909;-51
2023/07/24 03:50:45;;;;;;;7.90;4.50;;;;;;;15.80;95.09;98590.90;106651;1271;22669;-51
2023/07/24 03:53:14;;;;;;;6.40;4.50;;;;;;;15.85;95.20;98581.50;106489;1271;99365;-50
2023/07/24 03:55:44;;;;;;;6.10;4.90;;;;;;;15.92;95.29;98578.05;106587;1271;23915;-52
2023/07/24 03:58:13;;;;;;;5.70;4.60;;;;;;;16.01;95.39;98580.47;106602;1271;25460;-51
2023/07/24 04:00:41;;;;;;;6.70;5.00;;;;;;;16.10;95.38;98583.36;106446;1271;98801;-50
2023/07/24 04:03:10;;;;;;;6.20;4.60;;;;;;;16.15;95.02;98587.14;106537;1271;22660;-49
2023/07/24 04:05:39;;;;;;;6.20;5.10;;;;;;;16.16;95.06;98579.45;106456;1273;99065;-52
2023/07/24 04:08:08;;;;;;;5.10;4.60;;;;;;;16.21;95.19;98573.44;106522;1273;22533;-52
2023/07/24 04:10:37;;;;;;;7.20;4.90;;;;;;;16.28;95.21;98566.85;106402;1270;22533;-55
2023/07/24 04:13:05;;;;;;;6.40;4.90;;;;;;;16.35;95.00;98562.20;106395;1271;98768;-51
2023/07/24 04:15:34;;;;;;;7.20;5.20;;;;;;;16.42;95.00;98567.20;106565;1271;25102;-52
2023/07/24 04:18:03;;;;;;;5.00;4.40;;;;;;;16.50;95.02;98564.55;106424;1271;98930;-55
2023/07/24 04:20:31;;;;;;;5.60;4.80;;;;;;;16.61;95.10;98566.17;106523;1271;22529;-52
2023/07/24 04:23:00;;;;;;;8.10;5.30;;;;;;;16.71;95.13;98568.20;106552;1271;27278;-52
2023/07/24 04:25:29;;;;;;;9.60;4.80;;;;;;;16.83;95.14;98572.08;106437;1271;98630;-51
2023/07/24 04:27:58;;;;;;;7.60;5.40;;;;;;;16.96;95.15;98572.67;106586;1271;22514;-51
2023/07/24 04:30:26;;;;;;;6.90;4.90;;;;;;;17.12;95.28;98575.23;106440;1267;99540;-49
2023/07/24 04:32:56;;;;;;;6.60;5.50;;;;;;;17.27;94.99;98572.98;106512;1275;24370;-51
2023/07/24 04:35:26;;;;;;;6.20;4.80;;;;;;;17.40;95.00;98569.96;106437;1271;98962;-50
2023/07/24 04:37:57;;;;;;;5.80;4.60;;;;;;;17.51;94.33;98565.91;106533;1271;22523;-53
2023/07/24 04:40:25;;;;;;;10.20;4.50;;;;;;;17.58;94.45;98556.65;106519;1273;22540;-50
2023/07/24 04:42:54;;;;;;;7.10;4.50;;;;;;;17.73;94.78;98555.47;106464;1274;98977;-50
2023/07/24 04:45:23;;;;;;;6.30;4.80;;;;;;;17.85;94.53;98556.05;106601;1270;26255;-50
2023/07/24 04:47:52;;;;;;;5.60;4.30;;;;;;;17.99;94.57;98553.10;106469;1261;99659;-49
2023/07/24 04:50:20;;;;;;;6.30;4.40;;;;;;;18.15;94.47;98548.30;106557;1274;24394;-51
2023/07/24 04:52:49;;;;;;;4.30;3.90;;;;;;;18.25;94.04;98549.71;106500;1271;22601;-51
2023/07/24 04:55:18;;;;;;;5.70;4.40;;;;;;;18.33;93.85;98554.59;106473;1277;98858;-50
2023/07/24 04:57:46;;;;;;;3.70;3.30;;;;;;;18.44;93.90;98556.45;106634;1265;22677;-49
2023/07/24 05:00:15;;;;;;;6.30;4.10;;;;;;;18.56;93.79;98559.23;106427;1278;98833;-50
2023/07/24 05:02:46;;;;;;;6.20;3.90;;;;;;;18.61;93.39;98565.78;106512;1271;24268;-47
2023/07/24 05:05:15;;;;;;;6.30;3.70;;;;;;;18.66;93.51;98568.98;106381;1271;98963;-53
2023/07/24 05:07:45;;;;;;;3.80;3.20;;;;;;;18.67;92.89;98568.20;106764;1269;25371;-51
2023/07/24 05:10:13;;;;;;;5.00;3.60;;;;;;;18.58;92.52;98568.73;106336;1271;314693;-50
2023/07/24 05:12:42;;;;;;;6.30;3.40;;;;;;;18.54;92.76;98564.83;106519;1271;99065;-51
2023/07/24 05:15:11;;;;;;;4.40;3.40;;;;;;;18.55;93.17;98567.09;106492;1273;24479;-52
2023/07/24 05:17:40;;;;;;;4.60;3.90;;;;;;;18.60;92.73;98566.92;106524;1274;99165;-52
2023/07/24 05:20:09;;;;;;;4.70;3.80;;;;;;;18.62;92.64;98574.14;106541;1272;23885;-55
2023/07/24 05:22:38;;;;;;;5.80;3.30;;;;;;;18.68;92.38;98577.77;106581;1271;22553;-51
2023/07/24 05:25:07;;;;;;;4.50;3.00;;;;;;;18.76;92.68;98573.44;106533;1271;98846;-53
2023/07/24 05:27:37;;;;;;;9.00;3.90;;;;;;;18.83;92.21;98575.09;106672;1271;22485;-53
2023/07/24 05:30:09;;;;;;;4.00;3.50;;;;;;;18.85;91.96;98570.11;106478;1271;98794;-51
2023/07/24 05:32:38;;;;;;;4.00;3.40;;;;;;;18.85;91.53;98572.89;106443;1271;25485;-55
2023/07/24 05:35:07;;;;;;;5.10;3.50;;;;;;;18.83;91.38;98569.21;106541;1271;98971;-51
2023/07/24 05:37:36;;;;;;;6.20;4.30;;;;;;;18.88;91.81;98573.55;106629;1271;22548;-52
2023/07/24 05:40:06;;;;;;;4.90;3.60;;;;;;;18.93;91.50;98580.25;106622;1272;26113;-50
2023/07/24 05:42:41;;;;;;;5.70;3.80;;;;;;;18.95;91.33;98582.16;106474;1271;98745;-52
2023/07/24 05:45:14;;;;;;;6.20;3.60;;;;;;;19.03;91.41;98585.91;106469;1271;22533;-51
2023/07/24 05:47:43;;;;;;;4.70;3.40;;;;;;;19.09;91.11;98583.08;106409;1273;99155;-52
2023/07/24 05:50:13;;;;;;;5.90;3.30;;;;;;;19.13;90.69;98576.46;106590;1270;22529;-52
2023/07/24 05:52:42;;;;;;;7.70;3.30;;;;;;;19.18;90.67;98565.20;106465;1276;22536;-50
2023/07/24 05:55:11;;;;;;;6.80;3.60;;;;;;;19.15;90.14;98561.30;106676;1271;98876;-52
2023/07/24 05:57:40;;;;;;;5.40;3.90;;;;;;;19.11;89.89;98560.15;106725;1271;22533;-53
2023/07/24 06:00:09;;;;;;;4.40;3.70;;;;;;;19.09;89.93;98556.30;106382;1274;98787;-50
2023/07/24 06:02:38;;;;;;;5.10;4.00;;;;;;;19.13;90.42;98560.65;106499;1271;24357;-53
2023/07/24 06:05:07;;;;;;;4.50;3.80;;;;;;;19.25;90.24;98554.92;106496;1267;99526;-52
2023/07/24 06:07:36;;;;;;;8.30;4.20;;;;;;;19.32;89.62;98548.94;106579;1274;22530;-51
2023/07/24 06:10:05;;;;;;;8.90;4.00;;;;;;;19.34;89.28;98552.48;106503;1275;24396;-50
2023/07/24 06:12:34;;;;;;;5.00;3.40;;;;;;;19.41;89.76;98555.64;106476;1275;98824;-49
2023/07/24 06:15:04;;;;;;;7.10;3.60;;;;;;;19.48;89.35;98556.25;105407;1270;1162257;-49
2023/07/24 06:17:34;;;;;;;4.70;3.50;;;;;;;19.51;89.12;98553.02;106383;1275;99325;-51
2023/07/24 06:20:03;;;;;;;3.10;2.80;;;;;;;19.52;88.94;98555.38;106501;1274;24050;-50
2023/07/24 06:22:32;;;;;;;4.70;3.30;;;;;;;19.55;88.99;98558.59;106679;1274;99040;-49
2023/07/24 06:25:03;;;;;;;4.10;3.10;;;;;;;19.60;88.46;98562.12;106648;1268;22539;-52
2023/07/24 06:27:34;;;;;;;6.00;3.50;;;;;;;19.66;88.63;98564.75;106543;1274;98993;-53
2023/07/24 06:30:05;;;;;;;3.80;3.10;;;;;;;19.68;88.05;98571.73;106493;1273;24242;-51
2023/07/24 06:32:44;;;;;;;3.90;2.90;;;;;;;19.67;88.26;98574.36;106456;1269;25288;-51
2023/07/24 06:35:13;;;;;;;4.80;3.40;;;;;;;19.65;87.78;98573.98;106607;1275;98833;-50
2023/07/24 06:37:45;;;;;;;5.30;3.30;;;;;;;19.53;87.50;98567.48;106531;1274;22799;-50
2023/07/24 06:40:18;;;;;;;4.80;3.00;;;;;;;19.43;87.41;98563.50;106367;1275;98844;-50
2023/07/24 06:42:47;;;;;;;9.50;3.30;;;;;;;19.28;87.27;98561.68;106588;1277;25188;-51
2023/07/24 06:45:16;;;;;;;4.70;2.80;;;;;;;19.00;86.91;98558.76;106667;1278;22533;-54
2023/07/24 06:47:44;;;;;;;3.50;3.20;;;;;;;18.77;87.39;98559.04;106481;1275;98631;-52
2023/07/24 06:50:13;;;;;;;5.10;3.20;;;;;;;18.69;88.03;98559.89;106465;1277;22530;-50
2023/07/24 06:52:42;;;;;;;7.90;3.20;;;;;;;18.71;88.21;98558.60;106395;1275;98780;-52
2023/07/24 06:55:11;;;;;;;6.30;3.20;;;;;;;18.74;88.29;98560.30;106426;1275;23757;-51
2023/07/24 06:57:39;;;;;;;4.50;3.60;;;;;;;18.88;88.56;98561.14;106507;1272;99045;-52
2023/07/24 07:00:11;;;;;;;6.30;3.90;;;;;;;19.18;89.22;98562.05;106380;1276;24361;-53
2023/07/24 07:02:40;;;;;;;4.20;3.20;;;;;;;19.62;89.33;98561.73;106511;1272;22514;-56
2023/07/24 07:05:09;;;;;;;6.10;4.10;;;;;;;19.97;88.39;98553.63;106379;1279;99284;-51
2023/07/24 07:07:39;;;;;;;5.80;3.50;;;;;;;20.15;87.63;98549.40;106460;1275;25433;-51
2023/07/24 07:10:09;;;;;;;4.30;3.00;;;;;;;20.25;87.49;98545.81;106392;1262;99481;-49
2023/07/24 07:12:37;;;;;;;5.10;3.30;;;;;;;20.36;87.32;98544.67;106512;1273;24210;-53
2023/07/24 07:15:07;;;;;;;4.10;3.50;;;;;;;20.57;87.43;98539.98;106539;1272;25271;-52
2023/07/24 07:17:36;;;;;;;3.80;3.20;;;;;;;21.04;88.18;98531.92;106474;1273;98975;-56
2023/07/24 07:20:06;;;;;;;5.00;3.20;;;;;;;21.75;88.80;98529.48;106533;1279;22553;-51
2023/07/24 07:22:35;;;;;;;7.30;3.40;;;;;;;22.45;87.31;98529.49;106456;1274;99192;-51
2023/07/24 07:25:06;;;;;;;3.60;2.90;;;;;;;23.05;86.86;98525.52;106627;1275;25654;-49
2023/07/24 07:27:35;;;;;;;5.80;2.60;;;;;;;23.98;87.21;98525.27;106393;1272;98913;-53
2023/07/24 07:30:05;;;;;;;4.80;2.70;;;;;;;24.98;86.06;98520.62;106497;1278;22551;-52
2023/07/24 07:32:33;;;;;;;3.40;2.60;;;;;;;25.53;84.41;98512.07;106532;1272;25361;-47
2023/07/24 07:35:03;;;;;;;5.40;2.80;;;;;;;25.66;82.77;98516.98;106504;1274;98853;-50
2023/07/24 07:37:32;;;;;;;5.60;2.70;;;;;;;25.71;82.85;98516.39;106446;1277;25374;-52
2023/07/24 07:40:01;;;;;;;5.30;3.20;;;;;;;25.91;82.69;98519.42;106379;1273;98924;-51
2023/07/24 07:42:29;;;;;;;10.20;2.90;;;;;;;26.20;82.42;98517.08;106666;1273;22536;-54
2023/07/24 07:44:58;;;;;;;4.00;2.80;;;;;;;26.34;80.54;98522.37;106320;1279;22585;-52
2023/07/24 07:47:27;;;;;;;3.30;2.70;;;;;;;26.42;80.66;98516.91;106401;1274;98741;-54
2023/07/24 07:49:56;;;;;;;3.10;2.80;;;;;;;26.54;79.60;98511.92;106542;1272;22557;-51
2023/07/24 07:52:24;;;;;;;14.80;2.90;;;;;;;26.43;78.58;98513.45;106418;1274;98888;-51
2023/07/24 07:54:53;;;;;;;4.80;3.00;;;;;;;26.75;80.73;98505.38;106598;1273;22638;-54
2023/07/24 07:57:24;;;;;;;5.30;2.70;;;;;;;28.13;81.69;98501.60;106416;1277;98966;-51
2023/07/24 07:59:54;;;;;;;5.00;2.60;;;;;;;30.05;80.68;98504.33;106592;1274;22931;-51
2023/07/24 08:02:22;;;;;;;19.50;3.70;;;;;;;31.62;77.66;98504.96;106590;1279;25302;-52
2023/07/24 08:04:51;;;;;;;41.00;4.10;;;;;;;31.99;72.04;98510.00;106657;1272;98947;-51
2023/07/24 08:07:20;;;;;;;4.50;3.10;;;;;;;31.79;73.75;98504.21;106480;1270;22617;-53
2023/07/24 08:09:49;;;;;;;36.50;3.40;;;;;;;32.45;73.57;98499.36;106447;1273;98918;-53
2023/07/24 08:12:18;;;;;;;13.60;3.00;;;;;;;32.19;71.54;98496.77;106578;1272;26654;-55
2023/07/24 08:14:47;;;;;;;8.40;2.90;;;;;;;31.79;71.76;98491.58;106570;1275;22657;-55
2023/07/24 08:17:16;;;;;;;182.60;11.80;;;;;;;32.57;72.05;98492.14;106412;1272;99027;-53
2023/07/24 08:19:45;;;;;;;4.70;2.50;;;;;;;33.86;71.24;98481.48;106507;1278;22530;-53
2023/07/24 08:22:14;;;;;;;16.40;3.20;;;;;;;33.89;66.40;98484.08;106645;1274;98874;-54
2023/07/24 08:24:44;;;;;;;3.30;2.40;;;;;;;33.53;66.03;98490.23;106587;1278;24230;-55
2023/07/24 08:27:14;;;;;;;3.80;2.40;;;;;;;34.07;66.38;98484.48;106494;1274;22723;-54
2023/07/24 08:29:44;;;;;;;3.30;2.40;;;;;;;34.65;65.78;98478.30;106632;1272;98917;-53
2023/07/24 08:32:13;;;;;;;19.90;2.90;;;;;;;35.10;63.62;98472.10;106463;1257;25490;-54
2023/07/24 08:35:03;;;;;;;5.50;3.10;;;;;;;35.25;62.81;98468.86;107827;1273;99190;-54
2023/07/24 08:37:34;;;;;;;5.60;2.50;;;;;;;35.09;61.79;98466.59;106512;1272;22589;-54
2023/07/24 08:40:19;;;;;;;134.10;8.70;;;;;;;35.96;61.05;98467.40;106549;1274;99065;-55
2023/07/24 08:42:53;;;;;;;119.00;8.80;;;;;;;37.15;58.93;98460.94;106558;1276;24590;-58
2023/07/24 08:45:24;;;;;;;7.70;2.40;;;;;;;37.70;54.95;98454.21;106578;1272;23158;-58
2023/07/24 08:47:55;;;;;;;5.30;2.30;;;;;;;37.82;54.23;98450.50;106379;1278;98617;-54
2023/07/24 08:50:26;;;;;;;24.30;3.50;;;;;;;38.30;55.16;98442.89;106446;1274;22582;-53
2023/07/24 08:52:57;;;;;;;10.50;2.50;;;;;;;39.18;51.09;98437.27;106441;1273;98968;-54
2023/07/24 08:55:27;;;;;;;31.90;3.50;;;;;;;39.47;50.15;98433.71;106661;1273;24113;-54
2023/07/24 08:57:55;;;;;;;13.40;1.70;;;;;;;40.15;50.17;98434.08;106431;1274;99140;-54
2023/07/24 09:00:28;;;;;;;2.20;0.80;;;;;;;41.15;48.46;98436.49;106367;1274;25340;-53
2023/07/24 09:02:57;;;;;;;3.00;0.90;;;;;;;41.67;46.45;98437.91;106465;1273;24359;-54
2023/07/24 09:05:26;;;;;;;4.40;1.00;;;;;;;42.03;45.60;98433.15;106502;1273;99232;-54
2023/07/24 09:07:55;;;;;;;2.30;0.70;;;;;;;42.28;44.22;98434.86;106517;1275;26655;-54
2023/07/24 09:10:31;;;;;;;1.00;0.70;;;;;;;42.63;43.39;98433.77;106375;1275;98997;-58
2023/07/24 09:13:03;;;;;;;7.20;0.90;;;;;;;42.33;41.29;98426.63;106485;1275;25306;-55
2023/07/24 09:15:45;;;;;;;3.50;0.90;;;;;;;41.89;40.40;98426.13;106279;1272;98569;-56
2023/07/24 09:18:15;;;;;;;1.20;0.60;;;;;;;42.20;39.67;98429.73;106486;1272;22534;-57
2023/07/24 09:20:45;;;;;;;1.90;1.40;;;;;;;42.69;38.36;98427.25;106374;1272;25261;-57
2023/07/24 09:23:15;;;;;;;3.60;0.60;;;;;;;42.72;36.67;98421.69;106430;1273;99288;-55
2023/07/24 09:25:48;;;;;;;1.20;0.80;;;;;;;42.33;34.56;98421.86;106564;1275;22541;-56
2023/07/24 09:28:18;;;;;;;2.10;0.90;;;;;;;42.34;34.81;98423.33;106410;1274;99417;-57
2023/07/24 09:30:54;;;;;;;1.70;0.60;;;;;;;42.58;35.10;98414.38;106413;1272;22614;-57
2023/07/24 09:33:33;;;;;;;1.10;0.70;;;;;;;43.19;33.58;98414.32;106381;1272;23888;-57
2023/07/24 09:36:10;;;;;;;3.20;1.10;;;;;;;43.25;31.58;98410.69;106503;1273;22552;-55
2023/07/24 09:38:40;;;;;;;1.30;0.80;;;;;;;42.63;29.96;98408.48;106243;1274;24188;-54
2023/07/24 09:41:11;;;;;;;1.70;1.00;;;;;;;42.71;31.76;98404.38;106527;1273;99649;-58
2023/07/24 09:43:42;;;;;;;1.40;1.00;;;;;;;42.77;30.77;98404.70;106516;1273;22557;-57
2023/07/24 09:46:11;;;;;;;3.20;0.90;;;;;;;42.89;30.31;98406.58;106610;1277;98908;-54
2023/07/24 09:48:39;;;;;;;4.40;1.20;;;;;;;42.80;29.96;98402.64;106570;1272;22569;-56
2023/07/24 09:51:31;;;;;;;2.10;0.90;;;;;;;42.79;30.07;98400.91;106369;1274;23871;-57
2023/07/24 09:54:16;;;;;;;2.00;1.30;;;;;;;43.22;29.97;98401.42;106245;1273;22613;-58
2023/07/24 09:56:47;;;;;;;1.80;1.10;;;;;;;43.63;29.51;98395.56;106628;1273;25338;-56
2023/07/24 09:59:29;;;;;;;2.30;1.40;;;;;;;43.89;29.13;98395.46;106441;1273;99280;-55
2023/07/24 10:02:27;;;;;;;2.10;1.40;;;;;;;44.31;28.84;98390.83;106600;1274;22530;-56
2023/07/24 10:05:03;;;;;;;4.70;1.40;;;;;;;44.57;28.62;98389.27;106779;1275;98799;-54
2023/07/24 10:07:33;;;;;;;2.00;1.30;;;;;;;44.67;28.26;98386.36;106781;1273;22660;-56
2023/07/24 10:10:09;;;;;;;2.50;1.50;;;;;;;44.39;26.74;98382.11;106843;1277;99537;-54
2023/07/24 10:12:45;;;;;;;2.30;1.60;;;;;;;42.70;26.81;98372.24;106432;1273;25291;-56
2023/07/24 10:15:14;;;;;;;1.70;1.30;;;;;;;41.48;26.59;98374.31;106592;1273;24222;-57
2023/07/24 10:17:43;;;;;;;4.60;1.60;;;;;;;40.55;26.61;98379.86;106432;1273;99232;-58
2023/07/24 10:20:16;;;;;;;1.80;1.20;;;;;;;40.26;27.99;98369.87;106469;1273;80548;-54
2023/07/24 10:22:49;;;;;;;3.90;2.10;;;;;;;41.96;28.20;98369.99;106745;1269;99031;-59
2023/07/24 10:25:30;;;;;;;3.10;1.60;;;;;;;43.64;27.06;98366.65;106697;1274;22542;-54
2023/07/24 10:28:10;;;;;;;4.00;1.70;;;;;;;44.48;26.62;98361.25;106491;1274;99632;-54
2023/07/24 10:30:57;;;;;;;5.80;1.60;;;;;;;44.99;26.20;98360.15;106443;1275;25561;-55
2023/07/24 10:33:32;;;;;;;2.80;1.30;;;;;;;44.80;25.71;98352.69;106515;1273;22543;-57
2023/07/24 10:36:10;;;;;;;6.30;1.40;;;;;;;44.84;25.63;98356.00;106488;1274;22599;-56
2023/07/24 10:38:42;;;;;;;2.50;1.60;;;;;;;45.38;25.59;98353.27;106567;1276;25398;-56
2023/07/24 10:41:13;;;;;;;1.80;1.30;;;;;;;45.87;25.04;98346.27;106594;1273;98853;-57
2023/07/24 10:43:43;;;;;;;3.10;1.70;;;;;;;46.06;24.28;98346.09;106817;1276;24226;-56
2023/07/24 10:46:20;;;;;;;2.70;1.30;;;;;;;45.95;24.65;98337.96;106575;1274;98928;-55
2023/07/24 10:49:05;;;;;;;2.40;1.60;;;;;;;46.74;24.75;98331.82;106704;1274;25412;-55
2023/07/24 10:51:41;;;;;;;2.20;1.30;;;;;;;48.01;24.55;98336.09;106282;1274;99399;-56
2023/07/24 10:54:10;;;;;;;1.70;1.60;;;;;;;47.71;23.21;98339.61;106534;1273;22846;-57
2023/07/24 10:56:39;;;;;;;3.70;1.80;;;;;;;46.57;23.46;98338.13;106711;1273;22533;-56
2023/07/24 10:59:09;;;;;;;5.30;1.50;;;;;;;46.78;23.69;98340.80;106357;1277;98966;-55
2023/07/24 11:01:39;;;;;;;2.50;1.90;;;;;;;46.97;22.91;98340.92;106672;1276;24424;-55
2023/07/24 11:04:12;;;;;;;3.00;1.80;;;;;;;45.45;22.48;98339.16;106601;1273;99373;-55
2023/07/24 11:06:43;;;;;;;2.90;1.10;;;;;;;44.33;23.02;98336.63;106659;1273;22573;-54
2023/07/24 11:09:12;;;;;;;1.70;1.60;;;;;;;44.17;23.46;98332.98;106587;1273;22530;-54
2023/07/24 11:11:42;;;;;;;5.40;1.50;;;;;;;44.69;23.39;98328.55;106496;1276;99448;-55
2023/07/24 11:14:14;;;;;;;1.90;1.30;;;;;;;45.32;23.25;98329.89;106667;1273;22743;-56
2023/07/24 11:16:50;;;;;;;1.50;1.30;;;;;;;44.83;22.34;98326.77;106591;1273;98843;-56
2023/07/24 11:19:25;;;;;;;2.40;1.40;;;;;;;42.52;22.19;98323.38;106959;1272;25252;-55
2023/07/24 11:21:54;;;;;;;2.00;1.60;;;;;;;40.77;23.09;98325.38;107145;1273;98931;-56
2023/07/24 11:24:29;;;;;;;3.20;1.20;;;;;;;39.28;23.27;98327.02;106769;1272;25348;-55
2023/07/24 11:26:58;;;;;;;5.10;1.70;;;;;;;37.93;24.01;98320.75;106730;1272;22571;-56
2023/07/24 11:29:32;;;;;;;2.70;1.60;;;;;;;36.85;24.41;98325.80;106672;1273;99214;-55
2023/07/24 11:32:04;;;;;;;9.40;3.80;;;;;;;35.98;24.97;98325.08;106766;1274;22560;-53
2023/07/24 11:34:36;;;;;;;3.70;1.70;;;;;;;35.31;25.45;98321.71;106732;1273;98803;-55
2023/07/24 11:37:09;;;;;;;3.90;1.90;;;;;;;34.54;25.86;98325.20;106511;1272;22542;-55
2023/07/24 11:39:38;;;;;;;7.00;3.80;;;;;;;33.31;26.12;98326.65;106645;1274;99022;-54